Oakland Acres, Iowa
Current Conditions -  °F | °C
As of 11:35 PM on Friday 24 Oct 2014 (Local Time) from KGGI Reporting Station
Moderate Fog Moderate Fog  
Wind Chill: 54°   Ceiling: 100
Heat Index: 54°   Visibility: 0mi
Dew Point: 53°   Wind: 3mph
Humidity: 97%   Direction: 250°WSW
Pressure: 29.97"   Gusts: NA
Location:  41.7319°N, 92.7662°W
Report Text: KGGI 250435Z AUTO 25003KT M1/4SM FG OVC001 12/12 A2997 RMK AO2 T01210116
Loading
Personal Weather Stations






























Interactive Weather Map
Tropical Storm Tracking
New forecast layout! Learn more

10-Day Weather Forecast

Advertisements
Track Severe Weather on mobile